createdAt,value
2018-09-15T00:00:39.523Z,13.54
2018-09-15T00:01:39.789Z,13.51
2018-09-15T00:02:39.520Z,13.45
2018-09-15T00:03:39.760Z,13.45
2018-09-15T00:04:39.497Z,13.42
2018-09-15T00:05:39.749Z,13.51
2018-09-15T00:06:39.740Z,13.51
2018-09-15T00:07:39.730Z,13.5
2018-09-15T00:08:39.729Z,13.37
2018-09-15T00:09:39.734Z,13.45
2018-09-15T00:10:39.461Z,13.5
2018-09-15T00:11:39.713Z,13.48
2018-09-15T00:12:39.447Z,13.53
2018-09-15T00:13:39.705Z,13.39
2018-09-15T00:14:39.695Z,13.53
2018-09-15T00:15:39.430Z,13.5
2018-09-15T00:16:39.677Z,13.37
2018-09-15T00:17:39.434Z,13.51
2018-09-15T00:18:39.406Z,13.42
2018-09-15T00:19:39.657Z,13.53
2018-09-15T00:20:39.390Z,13.57
2018-09-15T00:21:39.691Z,13.44
2018-09-15T00:22:39.642Z,13.54
2018-09-15T00:23:39.632Z,13.5
2018-09-15T00:24:39.631Z,13.45
2018-09-15T00:25:39.613Z,13.53
2018-09-15T00:26:39.604Z,13.54
2018-09-15T00:27:39.368Z,13.54
2018-09-15T00:28:39.591Z,13.58
2018-09-15T00:29:39.326Z,13.51
2018-09-15T00:30:39.320Z,13.55
2018-09-15T00:31:39.577Z,13.48
2018-09-15T00:32:39.563Z,13.5
2018-09-15T00:33:39.621Z,13.5
2018-09-15T00:34:39.558Z,13.51
2018-09-15T00:35:39.553Z,13.5
2018-09-15T00:36:39.535Z,13.42
2018-09-15T00:37:39.530Z,13.47
2018-09-15T00:38:39.518Z,13.45
2018-09-15T00:39:39.520Z,13.42
2018-09-15T00:40:39.511Z,13.42
2018-09-15T00:41:39.267Z,13.47
2018-09-15T00:42:38.970Z,13.5
2018-09-15T00:43:39.277Z,13.44
2018-09-15T00:44:39.472Z,13.4
2018-09-15T00:45:39.205Z,13.37
2018-09-15T00:46:39.453Z,13.35
2018-09-15T00:47:39.185Z,13.39
2018-09-15T00:48:39.435Z,13.4
2018-09-15T00:49:39.178Z,13.36
2018-09-15T00:50:39.422Z,13.28
2018-09-15T00:51:39.414Z,13.31
2018-09-15T00:52:39.413Z,13.37
2018-09-15T00:53:39.412Z,13.37
2018-09-15T00:54:39.147Z,13.35
2018-09-15T00:55:39.141Z,13.35
2018-09-15T00:56:39.383Z,13.29
2018-09-15T00:57:39.376Z,13.37
2018-09-15T00:58:39.372Z,13.36
2018-09-15T00:59:39.358Z,13.31
2018-09-15T01:00:39.103Z,13.31
2018-09-15T01:01:39.344Z,13.35
2018-09-15T01:02:39.346Z,13.24
2018-09-15T01:03:39.334Z,13.19
2018-09-15T01:04:39.068Z,13.11
2018-09-15T01:05:39.316Z,13.07
2018-09-15T01:06:39.312Z,13.06
2018-09-15T01:07:39.304Z,12.98
2018-09-15T01:08:39.035Z,12.95
2018-09-15T01:09:39.293Z,12.84
2018-09-15T01:10:39.284Z,12.83
2018-09-15T01:11:39.284Z,12.84
2018-09-15T01:12:39.265Z,12.81
2018-09-15T01:13:39.268Z,12.8
2018-09-15T01:14:39.254Z,12.78
2018-09-15T01:15:39.244Z,12.78
2018-09-15T01:16:39.238Z,12.77
2018-09-15T01:17:39.234Z,12.78
2018-09-15T01:18:38.958Z,12.84
2018-09-15T01:19:39.209Z,12.8
2018-09-15T01:20:39.209Z,12.94
2018-09-15T01:21:39.209Z,12.88
2018-09-15T01:22:39.191Z,12.86
2018-09-15T01:23:38.936Z,12.95
2018-09-15T01:24:39.181Z,12.95
2018-09-15T01:25:39.171Z,12.99
2018-09-15T01:26:38.908Z,12.99
2018-09-15T01:27:39.153Z,13.02
2018-09-15T01:28:39.148Z,12.94
2018-09-15T01:29:39.141Z,13.13
2018-09-15T01:30:39.131Z,13.11
2018-09-15T01:31:39.123Z,13.11
2018-09-15T01:32:39.119Z,13.09
2018-09-15T01:33:39.115Z,13.17
2018-09-15T01:34:39.100Z,13.21
2018-09-15T01:35:38.835Z,13.24
2018-09-15T01:36:38.824Z,13.21
2018-09-15T01:37:38.820Z,13.24
2018-09-15T01:38:39.073Z,13.24
2018-09-15T01:39:38.806Z,13.31
2018-09-15T01:40:39.050Z,13.37
2018-09-15T01:41:38.787Z,13.32
2018-09-15T01:42:39.036Z,13.31
2018-09-15T01:43:39.032Z,13.31
2018-09-15T01:44:38.775Z,13.29
2018-09-15T01:45:39.016Z,13.37
2018-09-15T01:46:39.011Z,13.36
2018-09-15T01:47:39.002Z,13.39
2018-09-15T01:48:38.989Z,13.4
2018-09-15T01:49:38.994Z,13.4
2018-09-15T01:50:38.984Z,13.37
2018-09-15T01:51:38.982Z,13.4
2018-09-15T01:52:38.717Z,13.42
2018-09-15T01:53:38.972Z,13.45
2018-09-15T01:54:38.952Z,13.44
2018-09-15T01:55:38.950Z,13.4
2018-09-15T01:56:38.941Z,13.47
2018-09-15T01:57:39.330Z,13.51
2018-09-15T01:58:38.934Z,13.47
2018-09-15T01:59:38.915Z,13.4
2018-09-15T02:00:38.651Z,13.5
2018-09-15T02:01:38.651Z,13.48
2018-09-15T02:02:38.903Z,13.44
2018-09-15T02:03:38.886Z,13.51
2018-09-15T02:04:38.882Z,13.5
2018-09-15T02:05:38.622Z,13.5
2018-09-15T02:06:38.611Z,13.44
2018-09-15T02:07:38.860Z,13.54
2018-09-15T02:08:38.851Z,13.57
2018-09-15T02:09:38.846Z,13.47
2018-09-15T02:10:38.587Z,13.53
2018-09-15T02:11:38.823Z,13.51
2018-09-15T02:12:38.826Z,13.54
2018-09-15T02:13:38.806Z,13.53
2018-09-15T02:14:38.809Z,13.55
2018-09-15T02:15:38.542Z,13.6
2018-09-15T02:16:38.799Z,13.66
2018-09-15T02:17:38.782Z,13.63
2018-09-15T02:18:38.520Z,13.6
2018-09-15T02:19:38.771Z,13.72
2018-09-15T02:20:38.766Z,13.68
2018-09-15T02:21:38.500Z,13.73
2018-09-15T02:22:39.049Z,13.69
2018-09-15T02:23:38.488Z,13.73
2018-09-15T02:24:38.740Z,13.78
2018-09-15T02:25:38.469Z,13.75
2018-09-15T02:26:38.719Z,13.72
2018-09-15T02:27:38.716Z,13.83
2018-09-15T02:28:38.710Z,13.79
2018-09-15T02:29:38.702Z,13.83
2018-09-15T02:30:38.436Z,13.81
2018-09-15T02:31:38.707Z,13.81
2018-09-15T02:32:38.679Z,13.84
2018-09-15T02:33:38.674Z,13.87
2018-09-15T02:34:38.670Z,13.81
2018-09-15T02:35:38.655Z,13.78
2018-09-15T02:36:38.396Z,13.78
2018-09-15T02:37:38.646Z,13.83
2018-09-15T02:38:38.681Z,13.81
2018-09-15T02:39:38.370Z,13.81
2018-09-15T02:40:38.625Z,13.84
2018-09-15T02:41:38.669Z,13.83
2018-09-15T02:42:38.620Z,13.78
2018-09-15T02:43:38.614Z,13.78
2018-09-15T02:44:38.596Z,13.78
2018-09-15T02:45:38.338Z,13.78
2018-09-15T02:46:38.323Z,13.73
2018-09-15T02:47:38.060Z,13.79
2018-09-15T02:48:38.568Z,13.83
2018-09-15T02:49:38.559Z,13.81
2018-09-15T02:50:38.555Z,13.7
2018-09-15T02:51:38.547Z,13.79
2018-09-15T02:52:38.544Z,13.73
2018-09-15T02:53:38.272Z,13.76
2018-09-15T02:54:38.734Z,13.69
2018-09-15T02:55:38.521Z,13.69
2018-09-15T02:56:38.532Z,13.76
2018-09-15T02:57:38.505Z,13.72
2018-09-15T02:58:38.249Z,13.79
2018-09-15T02:59:38.495Z,13.69
2018-09-15T03:00:38.494Z,13.83
2018-09-15T03:01:38.485Z,13.79
2018-09-15T03:02:38.473Z,13.79
2018-09-15T03:03:38.475Z,13.81
2018-09-15T03:04:38.454Z,13.73
2018-09-15T03:05:38.450Z,13.79
2018-09-15T03:06:38.445Z,13.78
2018-09-15T03:07:38.438Z,13.75
2018-09-15T03:08:38.435Z,13.75
2018-09-15T03:09:38.424Z,13.73
2018-09-15T03:10:38.558Z,13.76
2018-09-15T03:11:38.406Z,13.76
2018-09-15T03:12:38.140Z,13.86
2018-09-15T03:13:38.138Z,13.81
2018-09-15T03:14:38.391Z,13.87
2018-09-15T03:15:38.379Z,13.84
2018-09-15T03:16:38.379Z,13.79
2018-09-15T03:17:38.366Z,13.75
2018-09-15T03:18:38.358Z,13.81
2018-09-15T03:19:38.352Z,13.73
2018-09-15T03:20:38.105Z,13.86
2018-09-15T03:21:37.833Z,13.76
2018-09-15T03:22:38.332Z,13.78
2018-09-15T03:23:38.333Z,13.78
2018-09-15T03:24:37.803Z,13.78
2018-09-15T03:25:38.055Z,13.75
2018-09-15T03:26:38.300Z,13.78
2018-09-15T03:27:38.042Z,13.86
2018-09-15T03:28:38.289Z,13.86
2018-09-15T03:29:38.289Z,13.86
2018-09-15T03:30:38.280Z,13.87
2018-09-15T03:31:38.298Z,13.88
2018-09-15T03:32:38.280Z,13.88
2018-09-15T03:33:37.996Z,13.87
2018-09-15T03:34:37.993Z,13.84
2018-09-15T03:35:37.728Z,13.91
2018-09-15T03:36:38.227Z,13.87
2018-09-15T03:37:37.970Z,13.93
2018-09-15T03:38:38.239Z,13.95
2018-09-15T03:39:38.208Z,13.94
2018-09-15T03:40:38.206Z,13.94
2018-09-15T03:41:38.757Z,13.81
2018-09-15T03:42:38.185Z,13.81
2018-09-15T03:43:38.180Z,13.91
2018-09-15T03:44:38.174Z,13.94
2018-09-15T03:45:38.173Z,13.94
2018-09-15T03:46:37.907Z,13.95
2018-09-15T03:47:38.155Z,13.83
2018-09-15T03:48:38.153Z,13.83
2018-09-15T03:49:38.145Z,13.87
2018-09-15T03:50:38.133Z,13.84
2018-09-15T03:51:38.128Z,13.88
2018-09-15T03:52:38.128Z,13.84
2018-09-15T03:53:38.115Z,13.83
2018-09-15T03:54:38.119Z,13.86
2018-09-15T03:55:38.101Z,13.88
2018-09-15T03:56:38.089Z,13.84
2018-09-15T03:57:37.829Z,13.84
2018-09-15T03:58:38.085Z,13.88
2018-09-15T03:59:37.559Z,13.93
2018-09-15T04:00:38.063Z,13.87
2018-09-15T04:01:38.053Z,13.87
2018-09-15T04:02:38.054Z,13.84
2018-09-15T04:03:38.040Z,13.91
2018-09-15T04:04:38.042Z,13.87
2018-09-15T04:05:38.037Z,13.91
2018-09-15T04:06:37.764Z,13.83
2018-09-15T04:07:37.751Z,13.83
2018-09-15T04:08:37.747Z,13.79
2018-09-15T04:09:37.997Z,13.83
2018-09-15T04:10:37.993Z,13.87
2018-09-15T04:11:37.988Z,13.79
2018-09-15T04:12:37.982Z,13.84
2018-09-15T04:13:37.974Z,13.79
2018-09-15T04:14:37.970Z,13.78
2018-09-15T04:15:37.957Z,13.76
2018-09-15T04:16:37.687Z,13.79
2018-09-15T04:17:37.941Z,13.7
2018-09-15T04:18:37.675Z,13.66
2018-09-15T04:19:37.931Z,13.6
2018-09-15T04:20:37.962Z,13.57
2018-09-15T04:21:37.910Z,13.5
2018-09-15T04:22:37.904Z,13.42
2018-09-15T04:23:37.890Z,13.48
2018-09-15T04:24:37.667Z,13.47
2018-09-15T04:25:37.888Z,13.37
2018-09-15T04:26:37.879Z,13.44
2018-09-15T04:27:37.610Z,13.45
2018-09-15T04:28:38.168Z,13.37
2018-09-15T04:29:37.856Z,13.42
2018-09-15T04:30:37.848Z,13.42
2018-09-15T04:31:37.845Z,13.4
2018-09-15T04:32:37.830Z,13.36
2018-09-15T04:33:37.874Z,13.29
2018-09-15T04:34:37.813Z,13.32
2018-09-15T04:35:37.554Z,13.32
2018-09-15T04:36:37.809Z,13.27
2018-09-15T04:37:37.796Z,13.21
2018-09-15T04:38:37.533Z,13.16
2018-09-15T04:39:37.269Z,13.27
2018-09-15T04:40:37.514Z,13.11
2018-09-15T04:41:37.936Z,13.11
2018-09-15T04:42:37.757Z,13.17
2018-09-15T04:43:37.750Z,13.09
2018-09-15T04:44:37.739Z,13.11
2018-09-15T04:45:37.743Z,13.09
2018-09-15T04:46:37.728Z,13.07
2018-09-15T04:47:37.724Z,13.02
2018-09-15T04:48:37.728Z,12.96
2018-09-15T04:49:37.449Z,12.95
2018-09-15T04:50:37.443Z,12.98
2018-09-15T04:51:37.699Z,12.99
2018-09-15T04:52:37.585Z,12.92
2018-09-15T04:53:37.681Z,12.98
2018-09-15T04:54:39.171Z,12.96
2018-09-15T04:55:37.406Z,12.95
2018-09-15T04:56:37.651Z,12.94
2018-09-15T04:57:37.652Z,12.95
2018-09-15T04:58:37.503Z,13.01
2018-09-15T04:59:37.633Z,12.95
2018-09-15T05:00:37.632Z,13.06
2018-09-15T05:01:37.618Z,13.09
2018-09-15T05:02:37.614Z,13.06
2018-09-15T05:03:37.349Z,13.13
2018-09-15T05:04:37.084Z,13.1
2018-09-15T05:05:37.592Z,13.03
2018-09-15T05:06:37.171Z,13.13
2018-09-15T05:07:37.629Z,13.11
2018-09-15T05:08:37.307Z,13.09
2018-09-15T05:09:37.559Z,13.14
2018-09-15T05:10:37.554Z,13.14
2018-09-15T05:11:37.554Z,13.24
2018-09-15T05:12:37.617Z,13.17
2018-09-15T05:13:37.525Z,13.27
2018-09-15T05:14:37.269Z,13.2
2018-09-15T05:15:37.511Z,13.25
2018-09-15T05:16:37.504Z,13.21
2018-09-15T05:17:37.245Z,13.25
2018-09-15T05:18:37.235Z,13.32
2018-09-15T05:19:37.227Z,13.32
2018-09-15T05:20:37.478Z,13.35
2018-09-15T05:21:37.476Z,13.29
2018-09-15T05:22:37.460Z,13.31
2018-09-15T05:23:37.456Z,13.31
2018-09-15T05:24:37.190Z,13.27
2018-09-15T05:25:37.443Z,13.24
2018-09-15T05:26:37.436Z,13.17
2018-09-15T05:27:37.419Z,13.19
2018-09-15T05:28:37.417Z,13.16
2018-09-15T05:29:37.419Z,13.24
2018-09-15T05:30:37.409Z,13.2
2018-09-15T05:31:37.728Z,13.19
2018-09-15T05:32:37.392Z,13.13
2018-09-15T05:33:37.388Z,13.21
2018-09-15T05:34:37.112Z,13.27
2018-09-15T05:35:37.362Z,13.32
2018-09-15T05:36:37.100Z,13.32
2018-09-15T05:37:37.350Z,13.44
2018-09-15T05:38:37.344Z,13.39
2018-09-15T05:39:37.336Z,13.48
2018-09-15T05:40:37.324Z,13.51
2018-09-15T05:41:37.324Z,13.47
2018-09-15T05:42:37.311Z,13.57
2018-09-15T05:43:37.306Z,13.53
2018-09-15T05:44:37.299Z,13.62
2018-09-15T05:45:37.035Z,13.54
2018-09-15T05:46:37.287Z,13.6
2018-09-15T05:47:37.024Z,13.51
2018-09-15T05:48:37.011Z,13.53
2018-09-15T05:49:37.465Z,13.7
2018-09-15T05:50:36.999Z,13.63
2018-09-15T05:51:36.997Z,13.58
2018-09-15T05:52:36.987Z,13.72
2018-09-15T05:53:36.976Z,13.6
2018-09-15T05:54:37.225Z,13.69
2018-09-15T05:55:37.221Z,13.68
2018-09-15T05:56:36.954Z,13.76
2018-09-15T05:57:37.208Z,13.73
2018-09-15T05:58:37.252Z,13.75
2018-09-15T05:59:37.194Z,13.73
2018-09-15T06:00:37.459Z,13.78
2018-09-15T06:01:37.078Z,13.81
2018-09-15T06:02:36.912Z,13.84
2018-09-15T06:03:37.167Z,13.78
2018-09-15T06:04:37.155Z,13.78
2018-09-15T06:05:37.148Z,13.79
2018-09-15T06:06:37.172Z,13.86
2018-09-15T06:07:36.911Z,13.78
2018-09-15T06:08:36.871Z,13.87
2018-09-15T06:09:36.862Z,13.75
2018-09-15T06:10:36.851Z,13.79
2018-09-15T06:11:37.100Z,13.84
2018-09-15T06:12:37.113Z,13.79
2018-09-15T06:13:37.207Z,13.78
2018-09-15T06:14:37.090Z,13.84
2018-09-15T06:15:36.825Z,13.94
2018-09-15T06:16:37.073Z,14.02
2018-09-15T06:17:37.070Z,14.16
2018-09-15T06:18:36.802Z,14.21
2018-09-15T06:19:37.045Z,14.3
2018-09-15T06:20:36.785Z,14.28
2018-09-15T06:21:37.040Z,14.26
2018-09-15T06:22:37.030Z,14.31
2018-09-15T06:23:37.025Z,14.42
2018-09-15T06:24:37.014Z,14.48
2018-09-15T06:25:36.753Z,14.36
2018-09-15T06:26:37.014Z,14.45
2018-09-15T06:27:37.000Z,14.39
2018-09-15T06:28:36.729Z,14.41
2018-09-15T06:29:36.983Z,14.44
2018-09-15T06:30:36.975Z,14.45
2018-09-15T06:31:36.970Z,14.38
2018-09-15T06:32:36.968Z,14.42
2018-09-15T06:33:36.697Z,14.31
2018-09-15T06:34:36.945Z,14.31
2018-09-15T06:35:36.942Z,14.36
2018-09-15T06:36:36.932Z,14.33
2018-09-15T06:37:36.672Z,14.31
2018-09-15T06:38:36.406Z,14.33
2018-09-15T06:39:36.918Z,14.34
2018-09-15T06:40:36.917Z,14.42
2018-09-15T06:41:36.911Z,14.38
2018-09-15T06:42:36.647Z,14.51
2018-09-15T06:43:36.893Z,14.44
2018-09-15T06:44:36.627Z,14.46
2018-09-15T06:45:37.756Z,14.51
2018-09-15T06:46:36.626Z,14.69
2018-09-15T06:47:36.855Z,14.8
2018-09-15T06:48:36.853Z,14.83
2018-09-15T06:49:36.589Z,14.97
2018-09-15T06:50:36.841Z,14.95
2018-09-15T06:51:36.682Z,15.05
2018-09-15T06:52:36.574Z,15.05
2018-09-15T06:53:36.356Z,15.13
2018-09-15T06:54:36.566Z,15.16
2018-09-15T06:55:36.553Z,15.23
2018-09-15T06:56:36.799Z,15.3
2018-09-15T06:57:36.546Z,15.33
2018-09-15T06:58:36.793Z,15.37
2018-09-15T06:59:36.805Z,15.45
2018-09-15T07:00:36.528Z,15.38
2018-09-15T07:01:36.778Z,15.44
2018-09-15T07:02:36.511Z,15.33
2018-09-15T07:03:36.757Z,15.38
2018-09-15T07:04:36.755Z,15.34
2018-09-15T07:05:36.489Z,15.4
2018-09-15T07:06:36.490Z,15.27
2018-09-15T07:07:36.739Z,15.33
2018-09-15T07:08:36.471Z,15.37
2018-09-15T07:09:36.723Z,15.37
2018-09-15T07:10:36.732Z,15.44
2018-09-15T07:11:36.712Z,15.52
2018-09-15T07:12:36.705Z,15.56
2018-09-15T07:13:36.705Z,15.63
2018-09-15T07:14:36.696Z,15.68
2018-09-15T07:15:36.789Z,15.7
2018-09-15T07:16:36.169Z,15.74
2018-09-15T07:17:36.679Z,15.73
2018-09-15T07:18:36.159Z,15.83
2018-09-15T07:19:36.672Z,15.92
2018-09-15T07:20:36.662Z,15.8
2018-09-15T07:21:36.657Z,15.74
2018-09-15T07:22:36.651Z,15.6
2018-09-15T07:23:36.436Z,15.52
2018-09-15T07:24:36.637Z,15.49
2018-09-15T07:25:36.379Z,15.4
2018-09-15T07:26:36.629Z,15.34
2018-09-15T07:27:36.619Z,15.34
2018-09-15T07:28:36.371Z,15.23
2018-09-15T07:29:36.608Z,15.27
2018-09-15T07:30:36.616Z,15.23
2018-09-15T07:31:37.077Z,15.18
2018-09-15T07:32:36.594Z,15.22
2018-09-15T07:33:36.591Z,15.25
2018-09-15T07:34:36.589Z,15.3
2018-09-15T07:35:36.587Z,15.4
2018-09-15T07:36:36.577Z,15.45
2018-09-15T07:37:36.755Z,15.6
2018-09-15T07:38:36.557Z,15.7
2018-09-15T07:39:36.298Z,15.89
2018-09-15T07:40:36.287Z,15.98
2018-09-15T07:41:36.283Z,16.17
2018-09-15T07:42:36.278Z,16.25
2018-09-15T07:43:36.529Z,16.3
2018-09-15T07:44:36.292Z,16.27
2018-09-15T07:45:36.007Z,16.33
2018-09-15T07:46:36.519Z,16.27
2018-09-15T07:47:36.519Z,16.33
2018-09-15T07:48:36.503Z,16.29
2018-09-15T07:49:36.247Z,16.39
2018-09-15T07:50:36.494Z,16.47
2018-09-15T07:51:36.300Z,16.49
2018-09-15T07:52:36.226Z,16.58
2018-09-15T07:53:36.483Z,16.63
2018-09-15T07:54:36.220Z,16.65
2018-09-15T07:55:36.468Z,16.65
2018-09-15T07:56:36.463Z,16.85
2018-09-15T07:57:36.457Z,16.91
2018-09-15T07:58:36.458Z,17.03
2018-09-15T07:59:36.193Z,17
2018-09-15T08:00:36.194Z,17
2018-09-15T08:01:36.465Z,16.95
2018-09-15T08:02:36.174Z,16.95
2018-09-15T08:03:36.436Z,16.85
2018-09-15T08:04:36.421Z,16.87
2018-09-15T08:05:36.422Z,16.81
2018-09-15T08:06:36.418Z,16.7
2018-09-15T08:07:36.409Z,16.69
2018-09-15T08:08:36.407Z,16.69
2018-09-15T08:09:36.404Z,16.69
2018-09-15T08:10:36.138Z,16.81
2018-09-15T08:11:35.878Z,16.82
2018-09-15T08:12:36.132Z,16.88
2018-09-15T08:13:36.128Z,16.94
2018-09-15T08:14:36.382Z,16.87
2018-09-15T08:15:36.368Z,16.85
2018-09-15T08:16:35.854Z,16.82
2018-09-15T08:17:36.367Z,16.77
2018-09-15T08:18:36.358Z,16.77
2018-09-15T08:19:36.355Z,16.77
2018-09-15T08:20:36.466Z,16.85
2018-09-15T08:21:36.344Z,16.94
2018-09-15T08:22:36.345Z,17.06
2018-09-15T08:23:36.085Z,17.05
2018-09-15T08:24:36.333Z,17.25
2018-09-15T08:25:36.078Z,17.28
2018-09-15T08:26:36.517Z,17.3
2018-09-15T08:27:36.340Z,17.45
2018-09-15T08:28:36.090Z,17.52
2018-09-15T08:29:36.050Z,17.57
2018-09-15T08:30:36.304Z,17.58
2018-09-15T08:31:36.304Z,17.47
2018-09-15T08:32:36.040Z,17.47
2018-09-15T08:33:36.299Z,17.42
2018-09-15T08:34:36.292Z,17.58
2018-09-15T08:35:36.290Z,17.49
2018-09-15T08:36:36.285Z,17.52
2018-09-15T08:37:36.366Z,17.45
2018-09-15T08:38:36.019Z,17.4
2018-09-15T08:39:36.012Z,17.52
2018-09-15T08:40:36.011Z,17.47
2018-09-15T08:41:36.259Z,17.52
2018-09-15T08:42:36.262Z,17.47
2018-09-15T08:43:36.248Z,17.47
2018-09-15T08:44:35.993Z,17.57
2018-09-15T08:45:36.242Z,17.5
2018-09-15T08:46:36.243Z,17.5
2018-09-15T08:47:36.268Z,17.47
2018-09-15T08:48:36.229Z,17.47
2018-09-15T08:49:36.225Z,17.45
2018-09-15T08:50:36.283Z,17.43
2018-09-15T08:51:36.219Z,17.38
2018-09-15T08:52:36.211Z,17.47
2018-09-15T08:53:36.213Z,17.54
2018-09-15T08:54:36.206Z,17.45
2018-09-15T08:55:36.206Z,17.57
2018-09-15T08:56:36.199Z,17.6
2018-09-15T08:57:36.200Z,17.54
2018-09-15T08:58:36.199Z,17.62
2018-09-15T08:59:36.192Z,17.71
2018-09-15T09:00:35.924Z,17.81
2018-09-15T09:01:35.920Z,17.87
2018-09-15T09:02:36.172Z,17.87
2018-09-15T09:03:36.292Z,17.94
2018-09-15T09:04:36.164Z,17.95
2018-09-15T09:05:35.910Z,18.02
2018-09-15T09:06:36.156Z,18.2
2018-09-15T09:07:36.153Z,18.19
2018-09-15T09:08:36.153Z,18.35
2018-09-15T09:09:35.630Z,18.29
2018-09-15T09:10:35.892Z,18.38
2018-09-15T09:11:35.884Z,18.39
2018-09-15T09:12:36.142Z,18.51
2018-09-15T09:13:36.133Z,18.63
2018-09-15T09:14:36.133Z,18.71
2018-09-15T09:15:35.874Z,18.97
2018-09-15T09:16:35.869Z,19.13
2018-09-15T09:17:36.121Z,19.17
2018-09-15T09:18:36.118Z,19.2
2018-09-15T09:19:35.849Z,19.09
2018-09-15T09:20:36.104Z,18.89
2018-09-15T09:21:36.103Z,18.68
2018-09-15T09:22:36.102Z,18.5
2018-09-15T09:23:36.099Z,18.29
2018-09-15T09:24:36.099Z,17.99
2018-09-15T09:25:36.087Z,17.8
2018-09-15T09:26:36.492Z,17.43
2018-09-15T09:27:35.824Z,17.18
2018-09-15T09:28:35.818Z,17.03
2018-09-15T09:29:35.560Z,16.77
2018-09-15T09:30:36.072Z,16.59
2018-09-15T09:31:36.065Z,16.32
2018-09-15T09:32:36.064Z,16.26
2018-09-15T09:33:36.052Z,16.25
2018-09-15T09:34:36.060Z,16.18
2018-09-15T09:35:36.049Z,16.27
2018-09-15T09:36:36.045Z,16.29
2018-09-15T09:37:36.041Z,16.51
2018-09-15T09:38:36.037Z,16.51
2018-09-15T09:39:36.024Z,16.57
2018-09-15T09:40:36.023Z,16.91
2018-09-15T09:41:36.269Z,17.1
2018-09-15T09:42:36.014Z,17.17
2018-09-15T09:43:36.011Z,17.13
2018-09-15T09:44:35.999Z,17.09
2018-09-15T09:45:35.757Z,17.1
2018-09-15T09:46:35.740Z,17.3
2018-09-15T09:47:35.987Z,17.57
2018-09-15T09:48:35.984Z,17.69
2018-09-15T09:49:35.982Z,18.06
2018-09-15T09:50:35.981Z,18.36
2018-09-15T09:51:35.461Z,18.74
2018-09-15T09:52:35.972Z,18.96
2018-09-15T09:53:35.964Z,19.17
2018-09-15T09:54:35.706Z,19.31
2018-09-15T09:55:35.963Z,19.47
2018-09-15T09:56:35.696Z,19.5
2018-09-15T09:57:35.692Z,19.65
2018-09-15T09:58:35.687Z,19.79
2018-09-15T09:59:35.946Z,19.93
2018-09-15T10:00:35.683Z,20.02
2018-09-15T10:01:35.937Z,20.01
2018-09-15T10:02:35.671Z,19.97
2018-09-15T10:03:35.417Z,19.85
2018-09-15T10:04:35.930Z,19.86
2018-09-15T10:05:35.665Z,19.75
2018-09-15T10:06:35.921Z,19.79
2018-09-15T10:07:35.666Z,19.78
2018-09-15T10:08:35.926Z,19.68
2018-09-15T10:09:35.916Z,19.53
2018-09-15T10:10:35.909Z,19.35
2018-09-15T10:11:35.915Z,19.2
2018-09-15T10:12:35.900Z,18.96
2018-09-15T10:13:35.904Z,18.75
2018-09-15T10:14:35.897Z,18.61
2018-09-15T10:15:35.891Z,18.45
2018-09-15T10:16:35.894Z,18.27
2018-09-15T10:17:35.894Z,18.03
2018-09-15T10:18:35.635Z,17.83
2018-09-15T10:19:35.878Z,17.6
2018-09-15T10:20:35.875Z,17.43
2018-09-15T10:21:35.741Z,17.21
2018-09-15T10:22:35.870Z,17.1
2018-09-15T10:23:35.867Z,17.05
2018-09-15T10:24:35.609Z,16.95
2018-09-15T10:25:35.856Z,17.03
2018-09-15T10:26:35.861Z,17.1
2018-09-15T10:27:35.851Z,17.35
2018-09-15T10:28:35.851Z,17.52
2018-09-15T10:29:35.839Z,17.84
2018-09-15T10:30:35.841Z,18.11
2018-09-15T10:31:35.840Z,18.24
2018-09-15T10:32:35.575Z,18.5
2018-09-15T10:33:35.575Z,18.56
2018-09-15T10:34:35.828Z,18.82
2018-09-15T10:35:35.564Z,18.84
2018-09-15T10:36:35.563Z,18.99
2018-09-15T10:37:35.819Z,18.96
2018-09-15T10:38:35.820Z,19
2018-09-15T10:39:35.805Z,19.25
2018-09-15T10:40:36.057Z,19.32
2018-09-15T10:41:35.803Z,19.49
2018-09-15T10:42:35.811Z,19.5
2018-09-15T10:43:35.799Z,19.49
2018-09-15T10:44:35.791Z,19.43
2018-09-15T10:45:35.527Z,19.52
2018-09-15T10:46:35.581Z,19.43
2018-09-15T10:47:35.786Z,19.19
2018-09-15T10:48:35.775Z,19.07
2018-09-15T10:49:35.777Z,18.96
2018-09-15T10:50:35.784Z,18.86
2018-09-15T10:51:35.545Z,18.79
2018-09-15T10:52:35.509Z,18.79
2018-09-15T10:53:35.500Z,18.66
2018-09-15T10:54:35.500Z,18.47
2018-09-15T10:55:35.748Z,18.57
2018-09-15T10:56:35.756Z,18.6
2018-09-15T10:57:35.748Z,18.47
2018-09-15T10:58:35.742Z,18.54
2018-09-15T10:59:35.746Z,18.71
2018-09-15T11:00:35.555Z,18.6
2018-09-15T11:01:35.734Z,18.76
2018-09-15T11:02:35.724Z,18.75
2018-09-15T11:03:35.728Z,18.6
2018-09-15T11:04:35.717Z,18.56
2018-09-15T11:05:35.716Z,18.38
2018-09-15T11:06:35.715Z,18.24
2018-09-15T11:07:35.705Z,18.34
2018-09-15T11:08:35.704Z,18.2
2018-09-15T11:09:35.703Z,18.34
2018-09-15T11:10:35.441Z,18.23
2018-09-15T11:11:35.694Z,18.23
2018-09-15T11:12:35.691Z,18.24
2018-09-15T11:13:35.870Z,18.24
2018-09-15T11:14:35.430Z,18.45
2018-09-15T11:15:35.420Z,18.5
2018-09-15T11:16:35.163Z,18.61
2018-09-15T11:17:35.675Z,18.74
2018-09-15T11:18:35.669Z,18.81
2018-09-15T11:19:35.664Z,18.91
2018-09-15T11:20:35.656Z,18.96
2018-09-15T11:21:35.144Z,19.12
2018-09-15T11:22:35.783Z,19.15
2018-09-15T11:23:35.392Z,19.27
2018-09-15T11:24:35.389Z,19.32
2018-09-15T11:25:35.388Z,19.4
2018-09-15T11:26:35.382Z,19.37
2018-09-15T11:27:35.380Z,19.5
2018-09-15T11:28:35.790Z,19.42
2018-09-15T11:29:35.632Z,19.34
2018-09-15T11:30:35.622Z,19.3
2018-09-15T11:31:35.634Z,19.37
2018-09-15T11:32:35.360Z,19.43
2018-09-15T11:33:35.618Z,19.37
2018-09-15T11:34:35.620Z,19.28
2018-09-15T11:35:35.356Z,19.23
2018-09-15T11:36:35.604Z,19.09
2018-09-15T11:37:35.339Z,19.02
2018-09-15T11:38:35.596Z,18.89
2018-09-15T11:39:35.590Z,18.72
2018-09-15T11:40:35.597Z,18.5
2018-09-15T11:41:35.594Z,18.5
2018-09-15T11:42:35.582Z,18.45
2018-09-15T11:43:35.381Z,18.51
2018-09-15T11:44:35.581Z,18.54
2018-09-15T11:45:35.324Z,18.68
2018-09-15T11:46:35.570Z,18.5
2018-09-15T11:47:35.309Z,18.65
2018-09-15T11:48:35.308Z,18.66
2018-09-15T11:49:35.310Z,18.65
2018-09-15T11:50:35.561Z,18.54
2018-09-15T11:51:35.299Z,18.57
2018-09-15T11:52:35.294Z,18.61
2018-09-15T11:53:35.038Z,18.63
2018-09-15T11:54:35.550Z,18.53
2018-09-15T11:55:35.286Z,18.53
2018-09-15T11:56:35.541Z,18.65
2018-09-15T11:57:35.543Z,18.63
2018-09-15T11:58:35.527Z,18.51
2018-09-15T11:59:35.269Z,18.41
2018-09-15T12:00:35.522Z,18.32
2018-09-15T12:01:35.520Z,18.24
2018-09-15T12:02:35.521Z,18.27
2018-09-15T12:03:35.254Z,18.34
2018-09-15T12:04:35.250Z,18.34
2018-09-15T12:05:35.504Z,18.38
2018-09-15T12:06:35.242Z,18.45
2018-09-15T12:07:35.240Z,18.53
2018-09-15T12:08:35.494Z,18.54
2018-09-15T12:09:35.490Z,18.56
2018-09-15T12:10:35.229Z,18.69
2018-09-15T12:11:35.228Z,18.69
2018-09-15T12:12:35.234Z,18.74
2018-09-15T12:13:35.469Z,18.72
2018-09-15T12:14:35.477Z,18.84
2018-09-15T12:15:35.472Z,18.79
2018-09-15T12:16:35.474Z,18.82
2018-09-15T12:17:35.484Z,18.78
2018-09-15T12:18:35.456Z,18.79
2018-09-15T12:19:35.461Z,18.76
2018-09-15T12:20:35.453Z,18.65
2018-09-15T12:21:35.563Z,18.68
2018-09-15T12:22:35.186Z,18.69
2018-09-15T12:23:35.434Z,18.63
2018-09-15T12:24:35.432Z,18.61
2018-09-15T12:25:35.174Z,18.61
2018-09-15T12:26:34.913Z,18.61
2018-09-15T12:27:35.165Z,18.63
2018-09-15T12:28:35.419Z,18.69
2018-09-15T12:29:35.161Z,18.63
2018-09-15T12:30:35.164Z,18.51
2018-09-15T12:31:35.154Z,18.5
2018-09-15T12:32:35.163Z,18.47
2018-09-15T12:33:35.646Z,18.47
2018-09-15T12:34:35.142Z,18.5
2018-09-15T12:35:35.398Z,18.53
2018-09-15T12:36:35.397Z,18.51
2018-09-15T12:37:35.401Z,18.68
2018-09-15T12:38:35.131Z,18.82
2018-09-15T12:39:35.652Z,18.97
2018-09-15T12:40:35.383Z,18.96
2018-09-15T12:41:35.381Z,18.97
2018-09-15T12:42:35.374Z,19.06
2018-09-15T12:43:35.369Z,19.13
2018-09-15T12:44:35.367Z,19.06
2018-09-15T12:45:35.101Z,19.12
2018-09-15T12:46:35.100Z,19.16
2018-09-15T12:47:35.354Z,19.24
2018-09-15T12:48:35.355Z,19.17
2018-09-15T12:49:35.089Z,19.07
2018-09-15T12:50:35.348Z,19.06
2018-09-15T12:51:35.087Z,19.02
2018-09-15T12:52:35.339Z,18.91
2018-09-15T12:53:35.087Z,19.02
2018-09-15T12:54:35.328Z,18.9
2018-09-15T12:55:35.333Z,19.06